sensor_id;sensor_type;location;lat;lon;timestamp;P1;durP1;ratioP1;P2;durP2;ratioP2
44440;SDS011;30146;52.268;20.944;2022-08-11T00:02:39;5.40;;;3.70;;
44440;SDS011;30146;52.268;20.944;2022-08-11T00:05:14;9.50;;;4.20;;
44440;SDS011;30146;52.268;20.944;2022-08-11T00:07:48;8.70;;;4.40;;
44440;SDS011;30146;52.268;20.944;2022-08-11T00:10:23;10.00;;;3.80;;
44440;SDS011;30146;52.268;20.944;2022-08-11T00:12:55;8.20;;;3.80;;
44440;SDS011;30146;52.268;20.944;2022-08-11T00:15:36;6.80;;;4.60;;
44440;SDS011;30146;52.268;20.944;2022-08-11T00:18:11;9.20;;;4.60;;
44440;SDS011;30146;52.268;20.944;2022-08-11T00:20:43;13.10;;;4.50;;
44440;SDS011;30146;52.268;20.944;2022-08-11T00:23:16;9.70;;;3.80;;
44440;SDS011;30146;52.268;20.944;2022-08-11T00:25:48;10.50;;;4.00;;
44440;SDS011;30146;52.268;20.944;2022-08-11T00:28:25;8.80;;;4.50;;
44440;SDS011;30146;52.268;20.944;2022-08-11T00:30:58;5.90;;;4.00;;
44440;SDS011;30146;52.268;20.944;2022-08-11T00:33:36;5.50;;;3.90;;
44440;SDS011;30146;52.268;20.944;2022-08-11T00:36:13;8.30;;;3.80;;
44440;SDS011;30146;52.268;20.944;2022-08-11T00:38:52;7.90;;;3.70;;
44440;SDS011;30146;52.268;20.944;2022-08-11T00:41:30;5.20;;;3.30;;
44440;SDS011;30146;52.268;20.944;2022-08-11T00:44:09;6.20;;;3.70;;
44440;SDS011;30146;52.268;20.944;2022-08-11T00:46:56;8.90;;;3.90;;
44440;SDS011;30146;52.268;20.944;2022-08-11T00:49:37;7.70;;;3.70;;
44440;SDS011;30146;52.268;20.944;2022-08-11T00:52:19;10.80;;;3.90;;
44440;SDS011;30146;52.268;20.944;2022-08-11T00:55:15;6.10;;;3.70;;
44440;SDS011;30146;52.268;20.944;2022-08-11T01:01:20;6.30;;;3.70;;
44440;SDS011;30146;52.268;20.944;2022-08-11T01:10:33;6.30;;;3.40;;
44440;SDS011;30146;52.268;20.944;2022-08-11T01:16:47;7.40;;;3.80;;
44440;SDS011;30146;52.268;20.944;2022-08-11T01:19:59;4.70;;;3.50;;
44440;SDS011;30146;52.268;20.944;2022-08-11T01:33:14;12.10;;;4.20;;
44440;SDS011;30146;52.268;20.944;2022-08-11T01:36:36;12.10;;;3.40;;
44440;SDS011;30146;52.268;20.944;2022-08-11T01:42:37;9.20;;;3.40;;
44440;SDS011;30146;52.268;20.944;2022-08-11T01:45:55;6.70;;;3.40;;
44440;SDS011;30146;52.268;20.944;2022-08-11T01:48:33;4.90;;;3.50;;
44440;SDS011;30146;52.268;20.944;2022-08-11T01:51:21;7.30;;;4.10;;
44440;SDS011;30146;52.268;20.944;2022-08-11T01:54:02;5.40;;;3.40;;
44440;SDS011;30146;52.268;20.944;2022-08-11T01:56:43;4.90;;;3.50;;
44440;SDS011;30146;52.268;20.944;2022-08-11T01:59:27;5.90;;;3.20;;
44440;SDS011;30146;52.268;20.944;2022-08-11T02:02:10;16.10;;;4.10;;
44440;SDS011;30146;52.268;20.944;2022-08-11T02:05:22;9.40;;;4.10;;
44440;SDS011;30146;52.268;20.944;2022-08-11T02:08:01;9.60;;;3.60;;
44440;SDS011;30146;52.268;20.944;2022-08-11T02:10:42;6.10;;;3.70;;
44440;SDS011;30146;52.268;20.944;2022-08-11T02:13:48;5.90;;;3.80;;
44440;SDS011;30146;52.268;20.944;2022-08-11T02:16:28;6.70;;;3.70;;
44440;SDS011;30146;52.268;20.944;2022-08-11T02:19:20;7.20;;;3.60;;
44440;SDS011;30146;52.268;20.944;2022-08-11T02:22:21;7.00;;;4.00;;
44440;SDS011;30146;52.268;20.944;2022-08-11T02:25:19;6.10;;;3.60;;
44440;SDS011;30146;52.268;20.944;2022-08-11T02:28:00;6.60;;;3.60;;
44440;SDS011;30146;52.268;20.944;2022-08-11T02:30:36;9.50;;;4.10;;
44440;SDS011;30146;52.268;20.944;2022-08-11T02:34:04;8.40;;;4.10;;
44440;SDS011;30146;52.268;20.944;2022-08-11T02:36:43;6.50;;;4.10;;
44440;SDS011;30146;52.268;20.944;2022-08-11T02:39:23;4.10;;;3.40;;
44440;SDS011;30146;52.268;20.944;2022-08-11T02:42:09;6.20;;;3.60;;
44440;SDS011;30146;52.268;20.944;2022-08-11T02:45:13;7.70;;;4.00;;
44440;SDS011;30146;52.268;20.944;2022-08-11T02:47:59;5.50;;;3.60;;
44440;SDS011;30146;52.268;20.944;2022-08-11T02:50:50;6.10;;;3.50;;
44440;SDS011;30146;52.268;20.944;2022-08-11T02:56:29;5.90;;;3.80;;
44440;SDS011;30146;52.268;20.944;2022-08-11T02:59:18;6.10;;;3.70;;
44440;SDS011;30146;52.268;20.944;2022-08-11T03:02:15;5.10;;;3.40;;
44440;SDS011;30146;52.268;20.944;2022-08-11T03:05:04;14.70;;;3.40;;
44440;SDS011;30146;52.268;20.944;2022-08-11T03:07:50;12.80;;;4.40;;
44440;SDS011;30146;52.268;20.944;2022-08-11T03:10:35;8.50;;;3.60;;
44440;SDS011;30146;52.268;20.944;2022-08-11T03:13:40;10.30;;;3.80;;
44440;SDS011;30146;52.268;20.944;2022-08-11T03:16:33;6.10;;;4.30;;
44440;SDS011;30146;52.268;20.944;2022-08-11T03:19:20;6.00;;;3.70;;
44440;SDS011;30146;52.268;20.944;2022-08-11T03:21:58;5.40;;;3.80;;
44440;SDS011;30146;52.268;20.944;2022-08-11T03:24:51;8.20;;;3.90;;
44440;SDS011;30146;52.268;20.944;2022-08-11T03:27:36;8.90;;;4.20;;
44440;SDS011;30146;52.268;20.944;2022-08-11T03:30:16;8.20;;;3.70;;
44440;SDS011;30146;52.268;20.944;2022-08-11T03:36:14;7.60;;;4.40;;
44440;SDS011;30146;52.268;20.944;2022-08-11T03:39:06;9.30;;;4.30;;
44440;SDS011;30146;52.268;20.944;2022-08-11T03:41:45;10.10;;;4.20;;
44440;SDS011;30146;52.268;20.944;2022-08-11T03:44:39;9.00;;;4.50;;
44440;SDS011;30146;52.268;20.944;2022-08-11T03:50:25;8.90;;;4.00;;
44440;SDS011;30146;52.268;20.944;2022-08-11T03:53:12;9.10;;;4.00;;
44440;SDS011;30146;52.268;20.944;2022-08-11T03:55:55;10.20;;;4.40;;
44440;SDS011;30146;52.268;20.944;2022-08-11T03:58:59;12.10;;;4.30;;
44440;SDS011;30146;52.268;20.944;2022-08-11T04:02:07;8.40;;;4.20;;
44440;SDS011;30146;52.268;20.944;2022-08-11T04:04:53;18.30;;;4.70;;
44440;SDS011;30146;52.268;20.944;2022-08-11T04:08:06;9.90;;;4.40;;
44440;SDS011;30146;52.268;20.944;2022-08-11T04:11:13;9.80;;;5.10;;
44440;SDS011;30146;52.268;20.944;2022-08-11T04:14:11;8.10;;;4.30;;
44440;SDS011;30146;52.268;20.944;2022-08-11T04:17:35;6.70;;;4.10;;
44440;SDS011;30146;52.268;20.944;2022-08-11T04:23:26;17.60;;;5.20;;
44440;SDS011;30146;52.268;20.944;2022-08-11T04:26:35;14.60;;;4.80;;
44440;SDS011;30146;52.268;20.944;2022-08-11T04:32:38;11.40;;;4.50;;
44440;SDS011;30146;52.268;20.944;2022-08-11T04:35:33;10.40;;;4.20;;
44440;SDS011;30146;52.268;20.944;2022-08-11T04:51:42;7.00;;;3.60;;
44440;SDS011;30146;52.268;20.944;2022-08-11T04:54:52;8.60;;;3.90;;
44440;SDS011;30146;52.268;20.944;2022-08-11T04:57:50;10.60;;;3.70;;
44440;SDS011;30146;52.268;20.944;2022-08-11T05:00:49;12.30;;;5.40;;
44440;SDS011;30146;52.268;20.944;2022-08-11T05:04:10;8.00;;;5.60;;
44440;SDS011;30146;52.268;20.944;2022-08-11T05:07:20;11.20;;;5.10;;
44440;SDS011;30146;52.268;20.944;2022-08-11T05:10:16;14.60;;;5.30;;
44440;SDS011;30146;52.268;20.944;2022-08-11T05:12:58;27.60;;;5.50;;
44440;SDS011;30146;52.268;20.944;2022-08-11T05:15:46;11.60;;;4.90;;
44440;SDS011;30146;52.268;20.944;2022-08-11T05:18:40;13.00;;;4.90;;
44440;SDS011;30146;52.268;20.944;2022-08-11T05:21:34;10.60;;;5.30;;
44440;SDS011;30146;52.268;20.944;2022-08-11T05:24:27;14.40;;;5.60;;
44440;SDS011;30146;52.268;20.944;2022-08-11T05:27:23;12.50;;;4.20;;
44440;SDS011;30146;52.268;20.944;2022-08-11T05:30:19;8.30;;;3.80;;
44440;SDS011;30146;52.268;20.944;2022-08-11T05:33:17;14.40;;;3.70;;
44440;SDS011;30146;52.268;20.944;2022-08-11T05:36:10;8.30;;;4.50;;
44440;SDS011;30146;52.268;20.944;2022-08-11T05:38:51;10.40;;;3.40;;
44440;SDS011;30146;52.268;20.944;2022-08-11T05:41:43;9.90;;;3.20;;
44440;SDS011;30146;52.268;20.944;2022-08-11T05:44:32;7.70;;;3.40;;
44440;SDS011;30146;52.268;20.944;2022-08-11T05:47:24;5.80;;;3.30;;
44440;SDS011;30146;52.268;20.944;2022-08-11T05:50:14;7.80;;;3.40;;
44440;SDS011;30146;52.268;20.944;2022-08-11T05:53:09;5.10;;;3.40;;
44440;SDS011;30146;52.268;20.944;2022-08-11T05:56:13;8.70;;;3.30;;
44440;SDS011;30146;52.268;20.944;2022-08-11T05:58:45;6.70;;;3.30;;
44440;SDS011;30146;52.268;20.944;2022-08-11T06:01:22;8.00;;;3.10;;
44440;SDS011;30146;52.268;20.944;2022-08-11T06:03:55;7.00;;;3.00;;
44440;SDS011;30146;52.268;20.944;2022-08-11T06:06:53;7.00;;;3.10;;
44440;SDS011;30146;52.268;20.944;2022-08-11T06:09:31;6.60;;;3.50;;
44440;SDS011;30146;52.268;20.944;2022-08-11T06:12:05;10.30;;;2.90;;
44440;SDS011;30146;52.268;20.944;2022-08-11T06:14:44;9.00;;;2.70;;
44440;SDS011;30146;52.268;20.944;2022-08-11T06:17:22;12.30;;;2.90;;
44440;SDS011;30146;52.268;20.944;2022-08-11T06:20:07;9.40;;;3.30;;
44440;SDS011;30146;52.268;20.944;2022-08-11T06:22:40;10.90;;;2.80;;
44440;SDS011;30146;52.268;20.944;2022-08-11T06:25:19;7.20;;;3.10;;
44440;SDS011;30146;52.268;20.944;2022-08-11T06:27:58;11.30;;;3.10;;
44440;SDS011;30146;52.268;20.944;2022-08-11T06:30:34;12.40;;;4.50;;
44440;SDS011;30146;52.268;20.944;2022-08-11T06:33:08;9.30;;;3.70;;
44440;SDS011;30146;52.268;20.944;2022-08-11T06:35:47;21.30;;;5.20;;
44440;SDS011;30146;52.268;20.944;2022-08-11T06:38:35;15.50;;;4.30;;
44440;SDS011;30146;52.268;20.944;2022-08-11T06:41:17;12.40;;;4.20;;
44440;SDS011;30146;52.268;20.944;2022-08-11T06:46:36;13.10;;;4.20;;
44440;SDS011;30146;52.268;20.944;2022-08-11T06:49:10;13.30;;;3.80;;
44440;SDS011;30146;52.268;20.944;2022-08-11T06:51:57;9.40;;;3.80;;
44440;SDS011;30146;52.268;20.944;2022-08-11T06:54:32;15.60;;;3.60;;
44440;SDS011;30146;52.268;20.944;2022-08-11T06:57:10;19.00;;;4.00;;
44440;SDS011;30146;52.268;20.944;2022-08-11T07:00:00;6.60;;;3.10;;
44440;SDS011;30146;52.268;20.944;2022-08-11T07:02:58;12.10;;;3.40;;
44440;SDS011;30146;52.268;20.944;2022-08-11T07:05:39;12.20;;;3.50;;
44440;SDS011;30146;52.268;20.944;2022-08-11T07:08:24;8.30;;;4.20;;
44440;SDS011;30146;52.268;20.944;2022-08-11T07:14:52;13.40;;;3.20;;
44440;SDS011;30146;52.268;20.944;2022-08-11T07:17:43;10.40;;;3.70;;
44440;SDS011;30146;52.268;20.944;2022-08-11T07:20:38;17.70;;;3.70;;
44440;SDS011;30146;52.268;20.944;2022-08-11T07:23:30;13.10;;;3.30;;
44440;SDS011;30146;52.268;20.944;2022-08-11T07:26:23;11.60;;;3.10;;
44440;SDS011;30146;52.268;20.944;2022-08-11T07:29:12;12.00;;;3.30;;
44440;SDS011;30146;52.268;20.944;2022-08-11T07:31:45;10.80;;;3.70;;
44440;SDS011;30146;52.268;20.944;2022-08-11T07:34:20;12.40;;;3.40;;
44440;SDS011;30146;52.268;20.944;2022-08-11T07:36:55;15.70;;;3.10;;
44440;SDS011;30146;52.268;20.944;2022-08-11T07:39:32;6.60;;;2.90;;
44440;SDS011;30146;52.268;20.944;2022-08-11T07:42:05;17.20;;;3.50;;
44440;SDS011;30146;52.268;20.944;2022-08-11T07:44:39;7.10;;;3.00;;
44440;SDS011;30146;52.268;20.944;2022-08-11T07:47:24;8.80;;;3.20;;
44440;SDS011;30146;52.268;20.944;2022-08-11T07:50:14;7.10;;;2.70;;
44440;SDS011;30146;52.268;20.944;2022-08-11T07:53:03;5.60;;;2.30;;
44440;SDS011;30146;52.268;20.944;2022-08-11T07:55:35;11.60;;;2.20;;
44440;SDS011;30146;52.268;20.944;2022-08-11T07:58:18;3.80;;;1.70;;
44440;SDS011;30146;52.268;20.944;2022-08-11T08:01:20;7.60;;;2.20;;
44440;SDS011;30146;52.268;20.944;2022-08-11T08:04:10;6.20;;;2.50;;
44440;SDS011;30146;52.268;20.944;2022-08-11T08:07:02;7.90;;;1.90;;
44440;SDS011;30146;52.268;20.944;2022-08-11T08:09:52;7.90;;;2.30;;
44440;SDS011;30146;52.268;20.944;2022-08-11T08:12:43;4.70;;;1.80;;
44440;SDS011;30146;52.268;20.944;2022-08-11T08:15:32;5.10;;;1.90;;
44440;SDS011;30146;52.268;20.944;2022-08-11T08:18:21;8.50;;;1.80;;
44440;SDS011;30146;52.268;20.944;2022-08-11T08:20:55;6.20;;;1.80;;
44440;SDS011;30146;52.268;20.944;2022-08-11T08:26:11;2.70;;;1.60;;
44440;SDS011;30146;52.268;20.944;2022-08-11T08:29:02;8.50;;;2.20;;
44440;SDS011;30146;52.268;20.944;2022-08-11T08:31:53;7.30;;;2.30;;
44440;SDS011;30146;52.268;20.944;2022-08-11T08:34:25;7.60;;;1.90;;
44440;SDS011;30146;52.268;20.944;2022-08-11T08:37:00;4.50;;;2.00;;
44440;SDS011;30146;52.268;20.944;2022-08-11T08:39:53;7.50;;;2.20;;
44440;SDS011;30146;52.268;20.944;2022-08-11T08:42:26;5.10;;;2.20;;
44440;SDS011;30146;52.268;20.944;2022-08-11T08:45:01;10.10;;;2.20;;
44440;SDS011;30146;52.268;20.944;2022-08-11T08:47:36;4.90;;;2.10;;
44440;SDS011;30146;52.268;20.944;2022-08-11T08:50:13;5.60;;;2.10;;
44440;SDS011;30146;52.268;20.944;2022-08-11T08:52:57;8.40;;;1.80;;
44440;SDS011;30146;52.268;20.944;2022-08-11T08:55:33;16.30;;;2.30;;
44440;SDS011;30146;52.268;20.944;2022-08-11T08:58:12;2.30;;;1.60;;
44440;SDS011;30146;52.268;20.944;2022-08-11T09:00:45;5.50;;;1.90;;
44440;SDS011;30146;52.268;20.944;2022-08-11T09:06:09;4.90;;;1.80;;
44440;SDS011;30146;52.268;20.944;2022-08-11T09:08:43;6.10;;;1.90;;
44440;SDS011;30146;52.268;20.944;2022-08-11T09:11:19;4.70;;;1.90;;
44440;SDS011;30146;52.268;20.944;2022-08-11T09:14:06;3.00;;;1.70;;
44440;SDS011;30146;52.268;20.944;2022-08-11T09:16:42;5.90;;;2.00;;
44440;SDS011;30146;52.268;20.944;2022-08-11T09:19:16;7.40;;;2.00;;
44440;SDS011;30146;52.268;20.944;2022-08-11T09:21:48;3.50;;;1.70;;
44440;SDS011;30146;52.268;20.944;2022-08-11T09:25:11;5.80;;;1.80;;
44440;SDS011;30146;52.268;20.944;2022-08-11T09:27:58;4.90;;;2.10;;
44440;SDS011;30146;52.268;20.944;2022-08-11T09:30:27;12.50;;;2.10;;
44440;SDS011;30146;52.268;20.944;2022-08-11T09:32:56;5.90;;;1.90;;
44440;SDS011;30146;52.268;20.944;2022-08-11T09:35:27;3.40;;;1.70;;
44440;SDS011;30146;52.268;20.944;2022-08-11T09:37:57;2.80;;;1.60;;
44440;SDS011;30146;52.268;20.944;2022-08-11T09:40:53;5.80;;;1.90;;
44440;SDS011;30146;52.268;20.944;2022-08-11T09:43:24;3.10;;;1.50;;
44440;SDS011;30146;52.268;20.944;2022-08-11T09:46:12;5.40;;;1.40;;
44440;SDS011;30146;52.268;20.944;2022-08-11T09:48:42;2.80;;;1.40;;
44440;SDS011;30146;52.268;20.944;2022-08-11T09:51:13;3.70;;;1.20;;
44440;SDS011;30146;52.268;20.944;2022-08-11T09:53:43;4.70;;;1.10;;
44440;SDS011;30146;52.268;20.944;2022-08-11T09:56:30;3.40;;;1.20;;
44440;SDS011;30146;52.268;20.944;2022-08-11T09:59:18;5.10;;;1.40;;
44440;SDS011;30146;52.268;20.944;2022-08-11T10:01:49;2.90;;;1.50;;
44440;SDS011;30146;52.268;20.944;2022-08-11T10:06:56;1.80;;;1.10;;
44440;SDS011;30146;52.268;20.944;2022-08-11T10:09:35;4.20;;;1.40;;
44440;SDS011;30146;52.268;20.944;2022-08-11T10:14:36;2.50;;;1.20;;
44440;SDS011;30146;52.268;20.944;2022-08-11T10:17:42;4.80;;;1.30;;
44440;SDS011;30146;52.268;20.944;2022-08-11T10:20:29;7.00;;;1.20;;
44440;SDS011;30146;52.268;20.944;2022-08-11T10:23:01;5.80;;;1.00;;
44440;SDS011;30146;52.268;20.944;2022-08-11T10:25:49;3.90;;;1.40;;
44440;SDS011;30146;52.268;20.944;2022-08-11T10:28:35;4.00;;;1.30;;
44440;SDS011;30146;52.268;20.944;2022-08-11T10:31:24;14.70;;;1.50;;
44440;SDS011;30146;52.268;20.944;2022-08-11T10:34:26;4.50;;;1.20;;
44440;SDS011;30146;52.268;20.944;2022-08-11T10:36:57;2.20;;;1.00;;
44440;SDS011;30146;52.268;20.944;2022-08-11T10:39:28;2.40;;;1.10;;
44440;SDS011;30146;52.268;20.944;2022-08-11T10:41:58;7.50;;;1.10;;
44440;SDS011;30146;52.268;20.944;2022-08-11T10:45:06;4.10;;;1.10;;
44440;SDS011;30146;52.268;20.944;2022-08-11T10:47:51;3.50;;;1.80;;
44440;SDS011;30146;52.268;20.944;2022-08-11T10:50:22;2.50;;;1.30;;
44440;SDS011;30146;52.268;20.944;2022-08-11T10:53:14;5.40;;;1.40;;
44440;SDS011;30146;52.268;20.944;2022-08-11T10:56:04;1.30;;;1.00;;
44440;SDS011;30146;52.268;20.944;2022-08-11T10:58:52;2.40;;;1.20;;
44440;SDS011;30146;52.268;20.944;2022-08-11T11:01:31;4.10;;;3.30;;
44440;SDS011;30146;52.268;20.944;2022-08-11T11:04:03;2.60;;;1.20;;
44440;SDS011;30146;52.268;20.944;2022-08-11T11:06:37;2.30;;;1.30;;
44440;SDS011;30146;52.268;20.944;2022-08-11T11:09:14;5.60;;;1.20;;
44440;SDS011;30146;52.268;20.944;2022-08-11T11:11:47;5.80;;;1.20;;
44440;SDS011;30146;52.268;20.944;2022-08-11T11:14:36;3.60;;;1.70;;
44440;SDS011;30146;52.268;20.944;2022-08-11T11:17:45;4.30;;;1.50;;
44440;SDS011;30146;52.268;20.944;2022-08-11T11:20:28;4.90;;;1.60;;
44440;SDS011;30146;52.268;20.944;2022-08-11T11:23:06;3.20;;;1.50;;
44440;SDS011;30146;52.268;20.944;2022-08-11T11:25:43;6.80;;;1.90;;
44440;SDS011;30146;52.268;20.944;2022-08-11T11:28:45;1.50;;;1.20;;
44440;SDS011;30146;52.268;20.944;2022-08-11T11:31:52;2.40;;;1.30;;
44440;SDS011;30146;52.268;20.944;2022-08-11T11:37:37;5.60;;;1.60;;
44440;SDS011;30146;52.268;20.944;2022-08-11T11:40:27;9.20;;;1.90;;
44440;SDS011;30146;52.268;20.944;2022-08-11T11:42:58;5.50;;;1.60;;
44440;SDS011;30146;52.268;20.944;2022-08-11T11:45:28;3.20;;;1.30;;
44440;SDS011;30146;52.268;20.944;2022-08-11T11:47:57;2.00;;;1.30;;
44440;SDS011;30146;52.268;20.944;2022-08-11T11:50:28;2.40;;;1.20;;
44440;SDS011;30146;52.268;20.944;2022-08-11T11:53:00;4.00;;;1.60;;
44440;SDS011;30146;52.268;20.944;2022-08-11T11:55:32;3.40;;;1.40;;
44440;SDS011;30146;52.268;20.944;2022-08-11T11:58:02;2.70;;;1.40;;
44440;SDS011;30146;52.268;20.944;2022-08-11T12:00:49;3.80;;;1.40;;
44440;SDS011;30146;52.268;20.944;2022-08-11T12:03:37;4.80;;;1.20;;
44440;SDS011;30146;52.268;20.944;2022-08-11T12:06:07;1.50;;;1.20;;
44440;SDS011;30146;52.268;20.944;2022-08-11T12:08:40;6.30;;;1.60;;
44440;SDS011;30146;52.268;20.944;2022-08-11T12:11:10;2.40;;;1.80;;
44440;SDS011;30146;52.268;20.944;2022-08-11T12:13:58;2.20;;;1.20;;
44440;SDS011;30146;52.268;20.944;2022-08-11T12:16:30;4.70;;;1.30;;
44440;SDS011;30146;52.268;20.944;2022-08-11T12:19:05;1.40;;;1.20;;
44440;SDS011;30146;52.268;20.944;2022-08-11T12:21:37;6.40;;;3.30;;
44440;SDS011;30146;52.268;20.944;2022-08-11T12:24:29;2.00;;;1.50;;
44440;SDS011;30146;52.268;20.944;2022-08-11T12:27:17;3.10;;;1.50;;
44440;SDS011;30146;52.268;20.944;2022-08-11T12:29:53;6.00;;;1.60;;
44440;SDS011;30146;52.268;20.944;2022-08-11T12:32:24;1.90;;;1.40;;
44440;SDS011;30146;52.268;20.944;2022-08-11T12:34:55;2.70;;;1.30;;
44440;SDS011;30146;52.268;20.944;2022-08-11T12:37:26;1.50;;;1.20;;
44440;SDS011;30146;52.268;20.944;2022-08-11T12:39:58;3.60;;;1.40;;
44440;SDS011;30146;52.268;20.944;2022-08-11T12:43:09;3.70;;;1.30;;
44440;SDS011;30146;52.268;20.944;2022-08-11T12:46:05;2.40;;;1.30;;
44440;SDS011;30146;52.268;20.944;2022-08-11T12:48:36;2.40;;;1.20;;
44440;SDS011;30146;52.268;20.944;2022-08-11T12:51:31;4.50;;;1.30;;
44440;SDS011;30146;52.268;20.944;2022-08-11T12:54:48;3.30;;;1.20;;
44440;SDS011;30146;52.268;20.944;2022-08-11T12:57:29;5.90;;;1.10;;
44440;SDS011;30146;52.268;20.944;2022-08-11T13:00:19;1.30;;;0.80;;
44440;SDS011;30146;52.268;20.944;2022-08-11T13:03:09;2.70;;;1.20;;
44440;SDS011;30146;52.268;20.944;2022-08-11T13:05:58;2.20;;;1.20;;
44440;SDS011;30146;52.268;20.944;2022-08-11T13:08:29;1.60;;;1.20;;
44440;SDS011;30146;52.268;20.944;2022-08-11T13:11:01;3.70;;;1.50;;
44440;SDS011;30146;52.268;20.944;2022-08-11T13:13:48;3.70;;;1.40;;
44440;SDS011;30146;52.268;20.944;2022-08-11T13:16:25;2.70;;;1.50;;
44440;SDS011;30146;52.268;20.944;2022-08-11T13:18:57;4.60;;;1.20;;
44440;SDS011;30146;52.268;20.944;2022-08-11T13:21:27;8.40;;;1.50;;
44440;SDS011;30146;52.268;20.944;2022-08-11T13:23:57;8.80;;;4.10;;
44440;SDS011;30146;52.268;20.944;2022-08-11T13:26:31;7.20;;;2.30;;
44440;SDS011;30146;52.268;20.944;2022-08-11T13:29:17;36.60;;;6.20;;
44440;SDS011;30146;52.268;20.944;2022-08-11T13:31:46;33.50;;;5.90;;
44440;SDS011;30146;52.268;20.944;2022-08-11T13:34:16;9.40;;;2.10;;
44440;SDS011;30146;52.268;20.944;2022-08-11T13:36:47;7.20;;;1.90;;
44440;SDS011;30146;52.268;20.944;2022-08-11T13:39:18;13.40;;;2.90;;
44440;SDS011;30146;52.268;20.944;2022-08-11T13:41:51;9.10;;;2.10;;
44440;SDS011;30146;52.268;20.944;2022-08-11T13:44:22;3.40;;;1.50;;
44440;SDS011;30146;52.268;20.944;2022-08-11T13:46:53;4.40;;;2.00;;
44440;SDS011;30146;52.268;20.944;2022-08-11T13:49:25;2.20;;;1.20;;
44440;SDS011;30146;52.268;20.944;2022-08-11T13:51:55;1.90;;;1.20;;
44440;SDS011;30146;52.268;20.944;2022-08-11T13:54:25;1.70;;;1.10;;
44440;SDS011;30146;52.268;20.944;2022-08-11T13:56:56;1.80;;;1.10;;
44440;SDS011;30146;52.268;20.944;2022-08-11T13:59:29;4.00;;;1.40;;
44440;SDS011;30146;52.268;20.944;2022-08-11T14:02:16;4.70;;;1.10;;
44440;SDS011;30146;52.268;20.944;2022-08-11T14:04:56;1.90;;;1.30;;
44440;SDS011;30146;52.268;20.944;2022-08-11T14:07:32;2.20;;;1.10;;
44440;SDS011;30146;52.268;20.944;2022-08-11T14:10:04;6.10;;;0.90;;
44440;SDS011;30146;52.268;20.944;2022-08-11T14:12:36;3.60;;;1.30;;
44440;SDS011;30146;52.268;20.944;2022-08-11T14:15:26;6.10;;;1.10;;
44440;SDS011;30146;52.268;20.944;2022-08-11T14:17:58;5.10;;;1.10;;
44440;SDS011;30146;52.268;20.944;2022-08-11T14:20:32;3.40;;;1.20;;
44440;SDS011;30146;52.268;20.944;2022-08-11T14:23:22;2.90;;;1.30;;
44440;SDS011;30146;52.268;20.944;2022-08-11T14:25:55;4.00;;;1.10;;
44440;SDS011;30146;52.268;20.944;2022-08-11T14:28:42;4.90;;;1.20;;
44440;SDS011;30146;52.268;20.944;2022-08-11T14:31:12;10.00;;;1.50;;
44440;SDS011;30146;52.268;20.944;2022-08-11T14:33:42;3.60;;;1.00;;
44440;SDS011;30146;52.268;20.944;2022-08-11T14:36:29;4.50;;;1.20;;
44440;SDS011;30146;52.268;20.944;2022-08-11T14:39:01;5.60;;;1.20;;
44440;SDS011;30146;52.268;20.944;2022-08-11T14:41:33;1.50;;;1.30;;
44440;SDS011;30146;52.268;20.944;2022-08-11T14:47:27;7.00;;;1.50;;
44440;SDS011;30146;52.268;20.944;2022-08-11T14:49:58;1.40;;;0.90;;
44440;SDS011;30146;52.268;20.944;2022-08-11T14:52:39;2.00;;;1.20;;
44440;SDS011;30146;52.268;20.944;2022-08-11T14:55:14;4.40;;;1.10;;
44440;SDS011;30146;52.268;20.944;2022-08-11T14:58:03;5.40;;;1.40;;
44440;SDS011;30146;52.268;20.944;2022-08-11T15:00:35;5.80;;;1.30;;
44440;SDS011;30146;52.268;20.944;2022-08-11T15:03:05;1.30;;;1.10;;
44440;SDS011;30146;52.268;20.944;2022-08-11T15:05:42;3.90;;;1.30;;
44440;SDS011;30146;52.268;20.944;2022-08-11T15:08:25;4.10;;;1.20;;
44440;SDS011;30146;52.268;20.944;2022-08-11T15:11:17;1.40;;;1.10;;
44440;SDS011;30146;52.268;20.944;2022-08-11T15:14:06;4.90;;;1.70;;
44440;SDS011;30146;52.268;20.944;2022-08-11T15:16:40;4.10;;;1.10;;
44440;SDS011;30146;52.268;20.944;2022-08-11T15:19:29;3.70;;;1.20;;
44440;SDS011;30146;52.268;20.944;2022-08-11T15:22:07;4.50;;;1.40;;
44440;SDS011;30146;52.268;20.944;2022-08-11T15:24:56;2.20;;;1.50;;
44440;SDS011;30146;52.268;20.944;2022-08-11T15:27:26;5.90;;;1.40;;
44440;SDS011;30146;52.268;20.944;2022-08-11T15:30:19;5.30;;;1.80;;
44440;SDS011;30146;52.268;20.944;2022-08-11T15:33:08;4.20;;;1.30;;
44440;SDS011;30146;52.268;20.944;2022-08-11T15:35:59;2.80;;;1.50;;
44440;SDS011;30146;52.268;20.944;2022-08-11T15:38:59;5.30;;;1.80;;
44440;SDS011;30146;52.268;20.944;2022-08-11T15:41:34;6.00;;;1.40;;
44440;SDS011;30146;52.268;20.944;2022-08-11T15:44:29;3.40;;;1.30;;
44440;SDS011;30146;52.268;20.944;2022-08-11T15:47:36;4.10;;;1.30;;
44440;SDS011;30146;52.268;20.944;2022-08-11T15:50:09;8.40;;;1.50;;
44440;SDS011;30146;52.268;20.944;2022-08-11T15:52:44;3.50;;;1.50;;
44440;SDS011;30146;52.268;20.944;2022-08-11T15:55:18;3.70;;;1.50;;
44440;SDS011;30146;52.268;20.944;2022-08-11T15:57:50;3.40;;;1.20;;
44440;SDS011;30146;52.268;20.944;2022-08-11T16:00:40;3.40;;;1.40;;
44440;SDS011;30146;52.268;20.944;2022-08-11T16:03:40;5.50;;;1.40;;
44440;SDS011;30146;52.268;20.944;2022-08-11T16:06:35;2.40;;;1.20;;
44440;SDS011;30146;52.268;20.944;2022-08-11T16:09:17;4.20;;;2.10;;
44440;SDS011;30146;52.268;20.944;2022-08-11T16:11:50;7.20;;;2.70;;
44440;SDS011;30146;52.268;20.944;2022-08-11T16:14:20;13.00;;;2.70;;
44440;SDS011;30146;52.268;20.944;2022-08-11T16:17:10;10.20;;;3.50;;
44440;SDS011;30146;52.268;20.944;2022-08-11T16:19:43;6.50;;;2.10;;
44440;SDS011;30146;52.268;20.944;2022-08-11T16:22:18;4.80;;;1.70;;
44440;SDS011;30146;52.268;20.944;2022-08-11T16:24:55;11.70;;;2.60;;
44440;SDS011;30146;52.268;20.944;2022-08-11T16:27:45;4.20;;;1.40;;
44440;SDS011;30146;52.268;20.944;2022-08-11T16:30:17;5.90;;;1.60;;
44440;SDS011;30146;52.268;20.944;2022-08-11T16:32:47;2.00;;;1.20;;
44440;SDS011;30146;52.268;20.944;2022-08-11T16:35:21;3.90;;;1.70;;
44440;SDS011;30146;52.268;20.944;2022-08-11T16:38:10;6.80;;;1.40;;
44440;SDS011;30146;52.268;20.944;2022-08-11T16:40:58;5.00;;;1.40;;
44440;SDS011;30146;52.268;20.944;2022-08-11T16:43:36;1.80;;;1.30;;
44440;SDS011;30146;52.268;20.944;2022-08-11T16:46:26;3.10;;;1.40;;
44440;SDS011;30146;52.268;20.944;2022-08-11T16:49:15;6.00;;;1.40;;
44440;SDS011;30146;52.268;20.944;2022-08-11T16:51:46;2.30;;;1.50;;
44440;SDS011;30146;52.268;20.944;2022-08-11T16:54:15;5.10;;;2.00;;
44440;SDS011;30146;52.268;20.944;2022-08-11T16:56:45;4.90;;;1.90;;
44440;SDS011;30146;52.268;20.944;2022-08-11T16:59:16;5.20;;;1.50;;
44440;SDS011;30146;52.268;20.944;2022-08-11T17:01:53;7.70;;;1.80;;
44440;SDS011;30146;52.268;20.944;2022-08-11T17:04:27;6.70;;;1.30;;
44440;SDS011;30146;52.268;20.944;2022-08-11T17:07:21;5.80;;;1.80;;
44440;SDS011;30146;52.268;20.944;2022-08-11T17:10:12;7.60;;;1.80;;
44440;SDS011;30146;52.268;20.944;2022-08-11T17:13:31;2.60;;;1.50;;
44440;SDS011;30146;52.268;20.944;2022-08-11T17:16:03;7.10;;;1.50;;
44440;SDS011;30146;52.268;20.944;2022-08-11T17:18:40;5.20;;;1.40;;
44440;SDS011;30146;52.268;20.944;2022-08-11T17:23:43;4.40;;;1.30;;
44440;SDS011;30146;52.268;20.944;2022-08-11T17:26:16;3.20;;;1.90;;
44440;SDS011;30146;52.268;20.944;2022-08-11T17:28:51;2.30;;;1.40;;